Time;durP1;ratioP1;P1;durP2;ratioP2;P2;SDS_P1;SDS_P2;PMS_P1;PMS_P2;Temp;Humidity;BMP_temperature;BMP_pressure;BME280_temperature;BME280_humidity;BME280_pressure;Samples;Min_cycle;Max_cycle;Signal;HPM_P1;HPM_P2
2021/04/04 00:00:12;;;;;;;19.95;4.72;;;;;;;-143.98;100.00;68091.63;5057695;28;20086;-80
2021/04/04 00:02:38;;;;;;;19.08;4.07;;;;;;;-143.98;100.00;68091.63;5057482;28;20336;-80
2021/04/04 00:05:08;;;;;;;36.55;5.05;;;;;;;-143.98;100.00;68091.63;5058003;28;20125;-80
2021/04/04 00:07:38;;;;;;;28.17;4.95;;;;;;;-143.98;100.00;68091.63;5079932;28;20052;-80
2021/04/04 00:10:11;;;;;;;25.50;4.82;;;;;;;-143.98;100.00;68091.63;5075431;28;20385;-81
2021/04/04 00:12:41;;;;;;;26.80;5.25;;;;;;;-143.98;100.00;68091.63;5095373;28;20148;-80
2021/04/04 00:15:13;;;;;;;30.90;5.00;;;;;;;-143.98;100.00;68091.63;5094499;28;20146;-81
2021/04/04 00:17:41;;;;;;;48.40;5.32;;;;;;;-143.98;100.00;68091.63;5081941;28;20063;-81
2021/04/04 00:20:25;;;;;;;31.05;4.68;;;;;;;-143.98;100.00;68091.63;5100344;28;20281;-80
2021/04/04 00:22:52;;;;;;;32.83;5.07;;;;;;;-143.98;100.00;68091.63;5095800;28;20047;-80
2021/04/04 00:25:18;;;;;;;31.73;5.43;;;;;;;-143.98;100.00;68091.63;5078429;28;20043;-80
2021/04/04 00:27:44;;;;;;;28.33;6.22;;;;;;;-143.98;100.00;68091.63;5094933;28;20351;-80
2021/04/04 00:30:17;;;;;;;37.78;5.25;;;;;;;-143.98;100.00;68091.63;5096520;28;20044;-81
2021/04/04 00:32:43;;;;;;;31.60;5.45;;;;;;;-143.98;100.00;68091.63;5115566;28;20403;-80
2021/04/04 00:35:15;;;;;;;34.45;4.53;;;;;;;-143.98;100.00;68091.63;5096818;28;20051;-80
2021/04/04 00:37:45;;;;;;;22.75;4.47;;;;;;;-143.98;100.00;68091.63;5097039;28;20047;-80
2021/04/04 00:40:23;;;;;;;19.48;3.78;;;;;;;-143.98;100.00;68091.63;5098306;28;20048;-80
2021/04/04 00:42:50;;;;;;;23.63;4.13;;;;;;;-143.98;100.00;68091.63;5097161;28;20103;-80
2021/04/04 00:45:34;;;;;;;23.63;4.75;;;;;;;-143.98;100.00;68091.63;5098365;28;20051;-81
2021/04/04 00:48:07;;;;;;;27.75;4.88;;;;;;;-143.98;100.00;68091.63;5116541;28;20051;-80
2021/04/04 00:50:36;;;;;;;22.17;4.20;;;;;;;-143.98;100.00;68091.63;5080881;28;20081;-81
2021/04/04 00:53:08;;;;;;;29.85;5.75;;;;;;;-143.98;100.00;68091.63;5098773;28;20097;-80
2021/04/04 00:55:35;;;;;;;27.40;5.15;;;;;;;-143.98;100.00;68091.63;5098655;28;20094;-81
2021/04/04 00:58:03;;;;;;;31.08;4.43;;;;;;;-143.98;100.00;68091.63;5101570;28;20052;-80
2021/04/04 01:00:30;;;;;;;26.38;4.55;;;;;;;-143.98;100.00;68091.63;5106567;28;20059;-80
2021/04/04 01:02:57;;;;;;;36.83;5.07;;;;;;;-143.98;100.00;68091.63;5102655;28;20047;-81
2021/04/04 01:05:30;;;;;;;25.25;4.82;;;;;;;-143.98;100.00;68091.63;5081754;28;20051;-80
2021/04/04 01:07:57;;;;;;;21.15;4.15;;;;;;;-143.98;100.00;68091.63;5098460;28;20059;-80
2021/04/04 01:10:32;;;;;;;33.22;5.60;;;;;;;-143.98;100.00;68091.63;5099161;28;20238;-80
2021/04/04 01:13:18;;;;;;;27.52;4.00;;;;;;;-143.98;100.00;68091.63;5099543;28;20315;-80
2021/04/04 01:16:16;;;;;;;36.78;4.88;;;;;;;-143.98;100.00;68091.63;5098714;28;20468;-80
2021/04/04 01:19:00;;;;;;;22.25;4.05;;;;;;;-143.98;100.00;68091.63;5103949;28;20119;-80
2021/04/04 01:21:38;;;;;;;31.15;4.63;;;;;;;-143.98;100.00;68091.63;5088550;28;20077;-80
2021/04/04 01:24:16;;;;;;;22.70;4.50;;;;;;;-143.98;100.00;68091.63;5105535;28;20052;-81
2021/04/04 01:26:53;;;;;;;20.55;3.88;;;;;;;-143.98;100.00;68091.63;5098136;28;20434;-81
2021/04/04 01:29:20;;;;;;;;;;;;;;;-143.98;100.00;68091.63;5098236;28;20131;-81
2021/04/04 01:31:47;;;;;;;16.90;3.55;;;;;;;-143.98;100.00;68091.63;5090981;28;19985;-81
2021/04/04 01:34:15;;;;;;;22.23;4.15;;;;;;;-143.98;100.00;68091.63;5061397;28;20097;-80
2021/04/04 01:36:42;;;;;;;30.92;4.53;;;;;;;-143.98;100.00;68091.63;5074561;28;20123;-80
2021/04/04 01:39:15;;;;;;;19.15;4.07;;;;;;;-143.98;100.00;68091.63;5053388;28;20072;-80
2021/04/04 01:41:42;;;;;;;25.83;5.40;;;;;;;-143.98;100.00;68091.63;5053800;28;20398;-80
2021/04/04 01:44:15;;;;;;;25.77;3.50;;;;;;;-143.98;100.00;68091.63;5035374;28;20490;-80
2021/04/04 01:46:46;;;;;;;24.92;4.00;;;;;;;-143.98;100.00;68091.63;5054223;28;20391;-80
2021/04/04 01:49:14;;;;;;;28.50;4.40;;;;;;;-143.98;100.00;68091.63;5054521;28;20067;-80
2021/04/04 01:51:41;;;;;;;22.25;3.85;;;;;;;-143.98;100.00;68091.63;5042395;28;20057;-80
2021/04/04 01:54:09;;;;;;;27.15;4.32;;;;;;;-143.98;100.00;68091.63;5066484;28;20053;-80
2021/04/04 01:56:38;;;;;;;23.08;3.40;;;;;;;-143.98;100.00;68091.63;5067698;28;20068;-80
2021/04/04 01:59:07;;;;;;;15.32;4.10;;;;;;;-143.98;100.00;68091.63;5060737;28;20136;-80
2021/04/04 02:01:33;;;;;;;25.08;4.30;;;;;;;-143.98;100.00;68091.63;5060421;28;20320;-81
2021/04/04 02:04:07;;;;;;;23.92;4.30;;;;;;;-143.98;100.00;68091.63;5040894;28;20088;-80
2021/04/04 02:06:35;;;;;;;29.80;4.65;;;;;;;-143.98;100.00;68091.63;5056094;28;20126;-81
2021/04/04 02:09:05;;;;;;;20.15;3.58;;;;;;;-143.98;100.00;68091.63;5055899;28;20443;-80
2021/04/04 02:11:32;;;;;;;24.80;3.63;;;;;;;-143.98;100.00;68091.63;5057295;28;20057;-80
2021/04/04 02:14:04;;;;;;;23.00;4.60;;;;;;;-143.98;100.00;68091.63;5057163;28;20060;-80
2021/04/04 02:16:30;;;;;;;21.77;4.75;;;;;;;-143.98;100.00;68091.63;5061556;28;20066;-80
2021/04/04 02:18:56;;;;;;;19.40;3.80;;;;;;;-143.98;100.00;68091.63;5077345;28;20048;-80
2021/04/04 02:21:23;;;;;;;23.20;3.72;;;;;;;-143.98;100.00;68091.63;5078060;28;20048;-80
2021/04/04 02:23:50;;;;;;;23.67;3.67;;;;;;;-143.98;100.00;68091.63;5078478;28;20251;-80
2021/04/04 02:26:16;;;;;;;24.55;3.90;;;;;;;-143.98;100.00;68091.63;5077153;28;20065;-80
2021/04/04 02:28:42;;;;;;;23.38;3.45;;;;;;;-143.98;100.00;68091.63;5077543;28;20064;-81
2021/04/04 02:31:13;;;;;;;20.38;3.60;;;;;;;-143.98;100.00;68091.63;5082855;28;20331;-80
2021/04/04 02:33:48;;;;;;;26.83;3.88;;;;;;;-143.98;100.00;68091.63;5101350;28;20051;-81
2021/04/04 02:36:18;;;;;;;15.07;3.50;;;;;;;-143.98;100.00;68091.63;5096362;28;20059;-80
2021/04/04 02:38:52;;;;;;;23.50;4.10;;;;;;;-143.98;100.00;68091.63;5095687;28;20107;-80
2021/04/04 02:41:18;;;;;;;20.17;4.95;;;;;;;-143.98;100.00;68091.63;5104172;28;20048;-80
2021/04/04 02:43:51;;;;;;;25.10;4.43;;;;;;;-143.98;100.00;68091.63;5124454;28;20078;-80
2021/04/04 02:46:22;;;;;;;18.98;3.63;;;;;;;-143.98;100.00;68091.63;5106596;28;20059;-80
2021/04/04 02:48:53;;;;;;;22.85;3.85;;;;;;;-143.98;100.00;68091.63;5113010;28;20047;-80
2021/04/04 02:51:27;;;;;;;27.23;5.13;;;;;;;-143.98;100.00;68091.63;5111055;28;20043;-81
2021/04/04 02:53:54;;;;;;;24.20;4.63;;;;;;;-143.98;100.00;68091.63;5102269;28;20055;-80
2021/04/04 02:56:24;;;;;;;27.13;4.63;;;;;;;-143.98;100.00;68091.63;5103192;28;20047;-80
2021/04/04 02:58:55;;;;;;;23.27;4.82;;;;;;;-143.98;100.00;68091.63;5084318;28;20098;-81
2021/04/04 03:01:24;;;;;;;29.30;4.18;;;;;;;-143.98;100.00;68091.63;5101715;28;20048;-80
2021/04/04 03:03:51;;;;;;;21.25;3.55;;;;;;;-143.98;100.00;68091.63;5099327;28;20086;-80
2021/04/04 03:06:21;;;;;;;13.98;3.20;;;;;;;-143.98;100.00;68091.63;5099097;28;20160;-80
2021/04/04 03:08:52;;;;;;;31.05;4.03;;;;;;;-143.98;100.00;68091.63;5082929;28;20264;-80
2021/04/04 03:11:19;;;;;;;27.27;3.92;;;;;;;-143.98;100.00;68091.63;5099021;28;20044;-81
2021/04/04 03:13:52;;;;;;;21.92;3.30;;;;;;;-143.98;100.00;68091.63;5099839;28;20075;-80
2021/04/04 03:16:20;;;;;;;20.95;4.43;;;;;;;-143.98;100.00;68091.63;5100396;28;20075;-80
2021/04/04 03:18:50;;;;;;;23.63;3.65;;;;;;;-143.98;100.00;68091.63;5082560;28;20427;-81
2021/04/04 03:21:17;;;;;;;30.00;3.80;;;;;;;-143.98;100.00;68091.63;5100179;28;20116;-80
2021/04/04 03:23:44;;;;;;;19.40;4.90;;;;;;;-143.98;100.00;68091.63;5099926;28;20075;-80
2021/04/04 03:26:12;;;;;;;24.25;3.80;;;;;;;-143.98;100.00;68091.63;5117753;28;20104;-80
2021/04/04 03:28:40;;;;;;;19.98;3.83;;;;;;;-143.98;100.00;68091.63;5082633;28;20327;-80
2021/04/04 03:31:09;;;;;;;25.42;3.40;;;;;;;-143.98;100.00;68091.63;5099307;28;20348;-80
2021/04/04 03:33:35;;;;;;;27.77;4.55;;;;;;;-143.98;100.00;68091.63;5099315;28;20055;-81
2021/04/04 03:36:02;;;;;;;19.38;3.33;;;;;;;-143.98;100.00;68091.63;5099846;28;20051;-80
2021/04/04 03:38:29;;;;;;;15.55;3.45;;;;;;;-143.98;100.00;68091.63;5099457;28;20410;-81
2021/04/04 03:40:57;;;;;;;19.75;4.03;;;;;;;-143.98;100.00;68091.63;5099888;28;20114;-81
2021/04/04 03:43:28;;;;;;;22.73;3.50;;;;;;;-143.98;100.00;68091.63;5106205;27;20094;-80
2021/04/04 03:46:01;;;;;;;24.05;3.47;;;;;;;-143.98;100.00;68091.63;5117593;27;20055;-81
2021/04/04 03:48:28;;;;;;;22.85;4.70;;;;;;;-143.98;100.00;68091.63;5095918;28;20052;-80
2021/04/04 03:50:56;;;;;;;21.95;3.72;;;;;;;-143.98;100.00;68091.63;5079189;28;20087;-80
2021/04/04 03:53:25;;;;;;;23.20;4.35;;;;;;;-143.98;100.00;68091.63;5077542;28;20074;-81
2021/04/04 03:55:57;;;;;;;22.17;3.38;;;;;;;-143.98;100.00;68091.63;5079287;28;20429;-81
2021/04/04 03:58:24;;;;;;;14.00;3.30;;;;;;;-143.98;100.00;68091.63;5106030;28;20044;-82
2021/04/04 04:00:51;;;;;;;27.48;4.35;;;;;;;-143.98;100.00;68091.63;5090992;28;20055;-81
2021/04/04 04:03:18;;;;;;;19.20;4.13;;;;;;;-143.98;100.00;68091.63;5091655;28;20099;-80
2021/04/04 04:05:48;;;;;;;25.15;3.88;;;;;;;-143.98;100.00;68091.63;5106237;28;20048;-80
2021/04/04 04:08:16;;;;;;;15.32;3.00;;;;;;;-143.98;100.00;68091.63;5074292;28;20062;-80
2021/04/04 04:10:43;;;;;;;27.75;3.25;;;;;;;-143.98;100.00;68091.63;5084397;28;20052;-81
2021/04/04 04:13:11;;;;;;;17.63;3.08;;;;;;;-143.98;100.00;68091.63;5078331;28;20055;-81
2021/04/04 04:15:41;;;;;;;11.65;2.30;;;;;;;-143.98;100.00;68091.63;5094412;28;20275;-80
2021/04/04 04:18:10;;;;;;;15.65;4.50;;;;;;;-143.98;100.00;68091.63;5079067;28;20059;-80
2021/04/04 04:20:41;;;;;;;21.63;4.60;;;;;;;-143.98;100.00;68091.63;5096656;28;20051;-80
2021/04/04 04:23:08;;;;;;;15.20;3.17;;;;;;;-143.98;100.00;68091.63;5079577;28;20113;-80
2021/04/04 04:25:39;;;;;;;21.05;3.38;;;;;;;-143.98;100.00;68091.63;5095831;28;20118;-80
2021/04/04 04:28:09;;;;;;;21.23;3.80;;;;;;;-143.98;100.00;68091.63;5062380;28;20430;-80
2021/04/04 04:30:43;;;;;;;26.48;4.43;;;;;;;-143.98;100.00;68091.63;5081690;28;20078;-81
2021/04/04 04:33:11;;;;;;;15.52;3.10;;;;;;;-143.98;100.00;68091.63;5101943;28;20315;-80
2021/04/04 04:35:38;;;;;;;17.38;3.38;;;;;;;-143.98;100.00;68091.63;5065189;28;20070;-81
2021/04/04 04:38:05;;;;;;;18.98;2.65;;;;;;;-143.98;100.00;68091.63;5095244;28;20052;-81
2021/04/04 04:40:31;;;;;;;18.98;4.07;;;;;;;-143.98;100.00;68091.63;5078158;28;20052;-80
2021/04/04 04:42:58;;;;;;;14.40;3.20;;;;;;;-143.98;100.00;68091.63;5095424;28;20052;-81
2021/04/04 04:45:30;;;;;;;17.17;3.25;;;;;;;-143.98;100.00;68091.63;5085115;28;20052;-80
2021/04/04 04:47:59;;;;;;;17.95;3.88;;;;;;;-143.98;100.00;68091.63;5083979;28;20402;-80
2021/04/04 04:50:29;;;;;;;16.63;3.22;;;;;;;-143.98;100.00;68091.63;5082870;28;20059;-79
2021/04/04 04:52:59;;;;;;;20.95;3.35;;;;;;;-143.98;100.00;68091.63;5095887;28;20117;-80
2021/04/04 04:55:27;;;;;;;25.77;3.78;;;;;;;-143.98;100.00;68091.63;5077001;28;20066;-79
2021/04/04 04:57:57;;;;;;;18.92;3.85;;;;;;;-143.98;100.00;68091.63;5078609;28;20366;-80
2021/04/04 05:00:24;;;;;;;13.98;3.05;;;;;;;-143.98;100.00;68091.63;5078652;28;20427;-79
2021/04/04 05:02:50;;;;;;;14.90;3.15;;;;;;;-143.98;100.00;68091.63;5078575;28;20052;-80
2021/04/04 05:05:19;;;;;;;18.17;3.25;;;;;;;-143.98;100.00;68091.63;5095839;28;20064;-79
2021/04/04 05:07:46;;;;;;;16.05;3.28;;;;;;;-143.98;100.00;68091.63;5098023;28;20121;-79
2021/04/04 05:10:14;;;;;;;15.43;3.33;;;;;;;-143.98;100.00;68091.63;5091759;28;20329;-79
2021/04/04 05:12:55;;;;;;;20.00;3.13;;;;;;;-143.98;100.00;68091.63;5079722;28;20105;-79
2021/04/04 05:15:25;;;;;;;15.82;3.42;;;;;;;-143.98;100.00;68091.63;5097226;28;20409;-79
2021/04/04 05:17:57;;;;;;;23.25;4.50;;;;;;;-143.98;100.00;68091.63;5063035;28;20120;-79
2021/04/04 05:20:23;;;;;;;12.32;2.80;;;;;;;-143.98;100.00;68091.63;5094158;28;20307;-80
2021/04/04 05:22:51;;;;;;;14.18;2.85;;;;;;;-143.98;100.00;68091.63;5092510;28;20062;-80
2021/04/04 05:25:18;;;;;;;18.67;3.00;;;;;;;-143.98;100.00;68091.63;5076884;28;20052;-80
2021/04/04 05:27:44;;;;;;;16.48;3.22;;;;;;;-143.98;100.00;68091.63;5077657;28;20048;-79
2021/04/04 05:30:12;;;;;;;16.23;3.63;;;;;;;-143.98;100.00;68091.63;5094665;28;20083;-80
2021/04/04 05:32:49;;;;;;;15.60;2.67;;;;;;;-143.98;100.00;68091.63;5072761;28;20138;-80
2021/04/04 05:35:17;;;;;;;16.13;3.10;;;;;;;-143.98;100.00;68091.63;5074360;28;20111;-80
2021/04/04 05:37:52;;;;;;;17.90;2.92;;;;;;;-143.98;100.00;68091.63;5073351;28;20123;-80
2021/04/04 05:40:20;;;;;;;18.85;3.50;;;;;;;-143.98;100.00;68091.63;5072694;28;20379;-80
2021/04/04 05:43:12;;;;;;;21.90;3.38;;;;;;;-143.98;100.00;68091.63;5090587;28;20139;-80
2021/04/04 05:45:56;;;;;;;23.52;3.20;;;;;;;-143.98;100.00;68091.63;5090324;28;20063;-80
2021/04/04 05:48:41;;;;;;;17.45;3.70;;;;;;;-143.98;100.00;68091.63;5091107;28;20056;-80
2021/04/04 05:51:41;;;;;;;17.35;3.33;;;;;;;-143.98;100.00;68091.63;5074778;28;20083;-80
2021/04/04 05:54:17;;;;;;;21.67;4.68;;;;;;;-143.98;100.00;68091.63;5101997;28;20082;-80
2021/04/04 05:57:12;;;;;;;20.35;5.07;;;;;;;-143.98;100.00;68091.63;5101864;28;20056;-80
2021/04/04 05:59:51;;;;;;;19.67;4.43;;;;;;;-143.98;100.00;68091.63;5078516;28;20122;-79
2021/04/04 06:02:57;;;;;;;18.40;5.10;;;;;;;-143.98;100.00;68091.63;5094096;28;20088;-79
2021/04/04 06:05:42;;;;;;;19.88;4.55;;;;;;;-143.98;100.00;68091.63;5082122;28;20048;-79
2021/04/04 06:08:43;;;;;;;19.02;5.05;;;;;;;-143.98;100.00;68091.63;5103796;28;20091;-79
2021/04/04 06:11:31;;;;;;;25.35;5.43;;;;;;;-143.98;100.00;68091.63;5076311;28;20066;-80
2021/04/04 06:14:09;;;;;;;26.23;4.90;;;;;;;-143.98;100.00;68091.63;5093180;28;20321;-80
2021/04/04 06:16:47;;;;;;;28.83;4.82;;;;;;;-143.98;100.00;68091.63;5093913;28;20051;-80
2021/04/04 06:19:41;;;;;;;22.75;5.22;;;;;;;-143.98;100.00;68091.63;5087701;28;20058;-80
2021/04/04 06:22:53;;;;;;;22.23;5.10;;;;;;;-143.98;100.00;68091.63;5079582;28;20052;-80
2021/04/04 06:25:41;;;;;;;23.48;4.90;;;;;;;-143.98;100.00;68091.63;5064436;28;20057;-81
2021/04/04 06:28:16;;;;;;;20.90;5.40;;;;;;;-143.98;100.00;68091.63;5078101;28;20076;-81
2021/04/04 06:30:55;;;;;;;20.33;4.85;;;;;;;-143.98;100.00;68091.63;5059306;28;20062;-80
2021/04/04 06:33:55;;;;;;;22.75;5.85;;;;;;;-143.98;100.00;68091.63;5092520;28;20061;-80
2021/04/04 06:36:38;;;;;;;26.67;5.53;;;;;;;-143.98;100.00;68091.63;5059781;28;20052;-81
2021/04/04 06:39:30;;;;;;;19.55;4.80;;;;;;;-143.98;100.00;68091.63;5077165;28;20049;-80
2021/04/04 06:42:26;;;;;;;16.27;5.32;;;;;;;-143.98;100.00;68091.63;5091644;28;20074;-81
2021/04/04 06:45:11;;;;;;;22.10;5.85;;;;;;;-143.98;100.00;68091.63;5094889;28;20109;-80
2021/04/04 06:47:40;;;;;;;22.52;5.63;;;;;;;-143.98;100.00;68091.63;5078758;28;20048;-80
2021/04/04 06:50:07;;;;;;;24.25;5.30;;;;;;;-143.98;100.00;68091.63;5080315;28;20048;-80
2021/04/04 06:52:51;;;;;;;21.25;6.22;;;;;;;-143.98;100.00;68091.63;5081889;28;20053;-80
2021/04/04 06:55:35;;;;;;;19.38;5.32;;;;;;;-143.98;100.00;68091.63;5080350;28;20056;-80
2021/04/04 06:58:25;;;;;;;19.50;6.38;;;;;;;-143.98;100.00;68091.63;5107768;28;20305;-81
2021/04/04 07:01:05;;;;;;;25.45;5.43;;;;;;;-143.98;100.00;68091.63;5080189;28;20057;-81
2021/04/04 07:03:47;;;;;;;17.35;5.70;;;;;;;-143.98;100.00;68091.63;5095263;28;20191;-81
2021/04/04 07:06:23;;;;;;;28.25;5.75;;;;;;;-143.98;100.00;68091.63;5101310;28;20216;-81
2021/04/04 07:09:17;;;;;;;25.35;5.90;;;;;;;-143.98;100.00;68091.63;5105464;28;20113;-80
2021/04/04 07:11:55;;;;;;;31.02;6.47;;;;;;;-143.98;100.00;68091.63;5094353;28;20048;-81
2021/04/04 07:14:40;;;;;;;;;;;;;;;-143.98;100.00;68091.63;5077800;28;20054;-80
2021/04/04 07:17:42;;;;;;;21.33;5.97;;;;;;;-143.98;100.00;68091.63;5094211;28;19920;-81
2021/04/04 07:20:15;;;;;;;18.65;5.50;;;;;;;-143.98;100.00;68091.63;5046029;28;20427;-81
2021/04/04 07:23:09;;;;;;;26.00;5.78;;;;;;;-143.98;100.00;68091.63;5075742;28;20119;-81
2021/04/04 07:25:52;;;;;;;23.67;5.80;;;;;;;-143.98;100.00;68091.63;5078044;28;20056;-80
2021/04/04 07:28:58;;;;;;;20.23;5.22;;;;;;;-143.98;100.00;68091.63;5085969;28;20044;-80
2021/04/04 07:31:32;;;;;;;13.75;4.85;;;;;;;-143.98;100.00;68091.63;5100462;28;20063;-80
2021/04/04 07:34:15;;;;;;;19.47;5.60;;;;;;;-143.98;100.00;68091.63;5115459;28;20138;-80
2021/04/04 07:36:52;;;;;;;21.88;5.38;;;;;;;-143.98;100.00;68091.63;5115754;28;20779;-80
2021/04/04 07:39:35;;;;;;;23.92;6.32;;;;;;;-143.98;100.00;68091.63;5102392;28;20067;-80
2021/04/04 07:42:18;;;;;;;18.10;6.13;;;;;;;-143.98;100.00;68091.63;5098467;28;20048;-80
2021/04/04 07:45:10;;;;;;;21.45;5.95;;;;;;;-143.98;100.00;68091.63;5118495;28;20081;-80
2021/04/04 07:47:46;;;;;;;18.67;5.95;;;;;;;-143.98;100.00;68091.63;5099619;28;20051;-80
2021/04/04 07:50:23;;;;;;;20.70;5.65;;;;;;;-143.98;100.00;68091.63;5099064;28;20469;-80
2021/04/04 07:53:35;;;;;;;24.88;6.35;;;;;;;-143.98;100.00;68091.63;5082496;28;20048;-80
2021/04/04 07:56:14;;;;;;;19.42;5.30;;;;;;;-143.98;100.00;68091.63;5038052;28;20645;-80
2021/04/04 07:58:49;;;;;;;25.20;6.18;;;;;;;-143.98;100.00;68091.63;5070588;28;20156;-80
2021/04/04 08:01:25;;;;;;;15.15;5.72;;;;;;;-143.98;100.00;68091.63;5053383;28;20140;-80
2021/04/04 08:04:16;;;;;;;22.50;5.47;;;;;;;-143.98;100.00;68091.63;5091908;27;20316;-80
2021/04/04 08:07:02;;;;;;;;;;;;;;;-143.98;100.00;68091.63;5100471;28;20062;-80
2021/04/04 08:09:43;;;;;;;15.95;5.53;;;;;;;-143.98;100.00;68091.63;5078877;28;20399;-80
2021/04/04 08:12:15;;;;;;;24.35;5.30;;;;;;;-143.98;100.00;68091.63;5096182;28;20070;-80
2021/04/04 08:14:55;;;;;;;21.60;6.07;;;;;;;-143.98;100.00;68091.63;5098397;28;20386;-80
2021/04/04 08:17:25;;;;;;;16.58;5.75;;;;;;;-143.98;100.00;68091.63;5078891;28;20144;-80
2021/04/04 08:20:12;;;;;;;25.20;5.88;;;;;;;-143.98;100.00;68091.63;5062069;28;20051;-80
2021/04/04 08:22:39;;;;;;;20.08;6.32;;;;;;;-143.98;100.00;68091.63;5080574;28;20080;-80
2021/04/04 08:25:16;;;;;;;22.25;5.93;;;;;;;-143.98;100.00;68091.63;5097623;28;20047;-80
2021/04/04 08:27:48;;;;;;;24.92;6.20;;;;;;;-143.98;100.00;68091.63;5097789;28;20044;-80
2021/04/04 08:30:44;;;;;;;18.17;6.10;;;;;;;-143.98;100.00;68091.63;5094287;28;20354;-80
2021/04/04 08:33:17;;;;;;;19.23;5.55;;;;;;;-143.98;100.00;68091.63;5095478;28;20206;-80
2021/04/04 08:35:45;;;;;;;15.65;5.22;;;;;;;-143.98;100.00;68091.63;5073374;28;20047;-80
2021/04/04 08:38:27;;;;;;;23.15;6.22;;;;;;;-143.98;100.00;68091.63;5098749;28;20146;-80
2021/04/04 08:40:56;;;;;;;25.10;6.85;;;;;;;-143.98;100.00;68091.63;5095985;28;20208;-80
2021/04/04 08:43:23;;;;;;;18.73;5.80;;;;;;;-143.98;100.00;68091.63;5097024;28;20054;-80
2021/04/04 08:46:02;;;;;;;19.40;5.13;;;;;;;-143.98;100.00;68091.63;5079129;28;20058;-80
2021/04/04 08:48:29;;;;;;;25.88;6.47;;;;;;;-143.98;100.00;68091.63;5075170;28;20048;-80
2021/04/04 08:50:57;;;;;;;25.42;7.50;;;;;;;-143.98;100.00;68091.63;5061523;28;20305;-80
2021/04/04 08:53:44;;;;;;;22.52;6.03;;;;;;;-143.98;100.00;68091.63;5075514;28;20048;-80
2021/04/04 08:56:14;;;;;;;17.98;6.45;;;;;;;-143.98;100.00;68091.63;5076598;28;20056;-80
2021/04/04 08:58:41;;;;;;;22.67;6.18;;;;;;;-143.98;100.00;68091.63;5076101;28;20252;-80
2021/04/04 09:01:34;;;;;;;21.25;6.53;;;;;;;-143.98;100.00;68091.63;5092457;28;20279;-80
2021/04/04 09:04:03;;;;;;;19.95;6.18;;;;;;;-143.98;100.00;68091.63;5093009;28;20059;-80
2021/04/04 09:06:43;;;;;;;16.75;5.93;;;;;;;-143.98;100.00;68091.63;5074579;28;20152;-80
2021/04/04 09:09:16;;;;;;;17.83;5.68;;;;;;;-143.98;100.00;68091.63;5075997;28;20080;-81
2021/04/04 09:11:44;;;;;;;21.98;5.90;;;;;;;-143.98;100.00;68091.63;5075573;28;20044;-81
2021/04/04 09:14:11;;;;;;;21.98;5.97;;;;;;;-143.98;100.00;68091.63;5075743;28;20052;-81
2021/04/04 09:16:50;;;;;;;18.13;5.72;;;;;;;-143.98;100.00;68091.63;5090238;28;20416;-81
2021/04/04 09:19:28;;;;;;;16.38;5.43;;;;;;;-143.98;100.00;68091.63;5092199;28;20040;-81
2021/04/04 09:21:55;;;;;;;23.88;6.10;;;;;;;-143.98;100.00;68091.63;5090273;28;20091;-81
2021/04/04 09:24:21;;;;;;;17.23;6.78;;;;;;;-143.98;100.00;68091.63;5085939;28;20132;-81
2021/04/04 09:26:53;;;;;;;18.92;6.80;;;;;;;-143.98;100.00;68091.63;5096926;27;20051;-80
2021/04/04 09:29:26;;;;;;;15.38;6.30;;;;;;;-143.98;100.00;68091.63;5098991;27;20051;-80
2021/04/04 09:31:55;;;;;;;;;;;;;;;-143.98;100.00;68091.63;5112748;28;20059;-80
2021/04/04 09:34:26;;;;;;;15.02;5.28;;;;;;;-143.98;100.00;68091.63;5122601;28;19924;-80
2021/04/04 09:36:58;;;;;;;20.75;5.10;;;;;;;-143.98;100.00;68091.63;5109964;28;20082;-80
2021/04/04 09:39:29;;;;;;;14.68;5.60;;;;;;;-143.98;100.00;68091.63;5118931;28;20060;-80
2021/04/04 09:41:57;;;;;;;18.20;4.68;;;;;;;-143.98;100.00;68091.63;5090645;28;20075;-80
2021/04/04 09:44:32;;;;;;;23.80;5.05;;;;;;;-143.98;100.00;68091.63;5090885;28;20072;-81
2021/04/04 09:47:05;;;;;;;23.15;5.32;;;;;;;-143.98;100.00;68091.63;5080568;28;20045;-81
2021/04/04 09:49:35;;;;;;;12.52;4.45;;;;;;;-143.98;100.00;68091.63;5100721;28;20064;-80
2021/04/04 09:52:18;;;;;;;17.48;4.60;;;;;;;-143.98;100.00;68091.63;5090109;28;20122;-80
2021/04/04 09:55:07;;;;;;;12.25;4.03;;;;;;;-143.98;100.00;68091.63;5081358;28;20059;-80
2021/04/04 09:57:57;;;;;;;16.58;4.35;;;;;;;-143.98;100.00;68091.63;5084215;28;20067;-80
2021/04/04 10:00:36;;;;;;;10.07;3.88;;;;;;;-143.98;100.00;68091.63;5095049;28;20053;-80
2021/04/04 10:03:17;;;;;;;17.00;4.53;;;;;;;-143.98;100.00;68091.63;5079766;28;20041;-79
2021/04/04 10:05:47;;;;;;;12.55;3.70;;;;;;;-143.98;100.00;68091.63;5075504;28;20174;-80
2021/04/04 10:08:27;;;;;;;14.65;3.97;;;;;;;-143.98;100.00;68091.63;5096197;28;20106;-80
2021/04/04 10:10:57;;;;;;;17.83;4.13;;;;;;;-143.98;100.00;68091.63;5100533;28;20056;-80
2021/04/04 10:13:28;;;;;;;16.17;4.10;;;;;;;-143.98;100.00;68091.63;5113121;28;20042;-79
2021/04/04 10:15:55;;;;;;;11.18;3.88;;;;;;;-143.98;100.00;68091.63;5097604;28;20163;-79
2021/04/04 10:18:25;;;;;;;18.65;5.07;;;;;;;-143.98;100.00;68091.63;5098286;28;20060;-80
2021/04/04 10:20:57;;;;;;;12.57;4.00;;;;;;;-143.98;100.00;68091.63;5114478;28;20129;-79
2021/04/04 10:23:32;;;;;;;20.75;4.57;;;;;;;-143.98;100.00;68091.63;5098052;28;20336;-80
2021/04/04 10:26:02;;;;;;;15.63;4.63;;;;;;;-143.98;100.00;68091.63;5082192;28;20105;-79
2021/04/04 10:28:59;;;;;;;11.57;4.18;;;;;;;-143.98;100.00;68091.63;5082763;28;20522;-81
2021/04/04 10:31:49;;;;;;;14.02;4.30;;;;;;;-143.98;100.00;68091.63;5057828;28;20064;-80
2021/04/04 10:34:18;;;;;;;12.15;4.07;;;;;;;-143.98;100.00;68091.63;5072595;28;20067;-79
2021/04/04 10:37:01;;;;;;;13.25;3.80;;;;;;;-143.98;100.00;68091.63;5064047;28;20139;-78
2021/04/04 10:39:28;;;;;;;14.18;3.88;;;;;;;-143.98;100.00;68091.63;5079039;28;20056;-80
2021/04/04 10:41:54;;;;;;;12.00;3.75;;;;;;;-143.98;100.00;68091.63;5077458;28;20068;-78
2021/04/04 10:44:24;;;;;;;13.98;3.78;;;;;;;-143.98;100.00;68091.63;5075814;28;20368;-78
2021/04/04 10:47:23;;;;;;;12.05;3.28;;;;;;;-143.98;100.00;68091.63;5074614;28;20075;-78
2021/04/04 10:49:50;;;;;;;12.35;3.75;;;;;;;-143.98;100.00;68091.63;5076937;28;20060;-78
2021/04/04 10:52:17;;;;;;;13.50;3.30;;;;;;;-143.98;100.00;68091.63;5058830;28;20083;-78
2021/04/04 10:54:54;;;;;;;16.70;4.28;;;;;;;-143.98;100.00;68091.63;5059447;28;20501;-79
2021/04/04 10:57:20;;;;;;;9.43;3.58;;;;;;;-143.98;100.00;68091.63;5074358;28;20141;-81
2021/04/04 10:59:48;;;;;;;11.63;4.15;;;;;;;-143.98;100.00;68091.63;5071993;28;20234;-81
2021/04/04 11:02:14;;;;;;;13.13;3.97;;;;;;;-143.98;100.00;68091.63;5072015;28;20326;-82
2021/04/04 11:04:40;;;;;;;11.85;3.20;;;;;;;-143.98;100.00;68091.63;5057271;28;20048;-81
2021/04/04 11:07:06;;;;;;;11.48;3.40;;;;;;;-143.98;100.00;68091.63;5072482;28;20048;-82
2021/04/04 11:09:34;;;;;;;12.77;3.50;;;;;;;-143.98;100.00;68091.63;5091377;28;20072;-81
2021/04/04 11:12:02;;;;;;;13.35;3.35;;;;;;;-143.98;100.00;68091.63;5053960;28;20062;-81
2021/04/04 11:14:30;;;;;;;16.73;3.97;;;;;;;-143.98;100.00;68091.63;5071562;28;20114;-81
2021/04/04 11:17:00;;;;;;;16.95;4.05;;;;;;;-143.98;100.00;68091.63;5072135;28;20060;-81
2021/04/04 11:19:27;;;;;;;7.05;3.00;;;;;;;-143.98;100.00;68091.63;5071346;28;20053;-81
2021/04/04 11:21:54;;;;;;;15.70;4.28;;;;;;;-143.98;100.00;68091.63;5070292;28;20094;-81
2021/04/04 11:24:27;;;;;;;13.55;4.93;;;;;;;-143.98;100.00;68091.63;5070576;28;20044;-80
2021/04/04 11:27:02;;;;;;;16.60;5.38;;;;;;;-143.98;100.00;68091.63;5059306;28;20058;-80
2021/04/04 11:29:29;;;;;;;18.63;5.82;;;;;;;-143.98;100.00;68091.63;5075655;28;20056;-80
2021/04/04 11:32:14;;;;;;;19.52;6.05;;;;;;;-143.98;100.00;68091.63;5067805;28;20056;-82